sensor_id;sensor_type;location;lat;lon;timestamp;P1;durP1;ratioP1;P2;durP2;ratioP2
48871;SDS011;36154;51.674;7.824;2022-07-18T00:01:52;0.90;;;0.40;;
48871;SDS011;36154;51.674;7.824;2022-07-18T00:04:17;0.50;;;0.40;;
48871;SDS011;36154;51.674;7.824;2022-07-18T00:06:42;0.50;;;0.47;;
48871;SDS011;36154;51.674;7.824;2022-07-18T00:09:08;1.17;;;0.40;;
48871;SDS011;36154;51.674;7.824;2022-07-18T00:11:33;0.47;;;0.40;;
48871;SDS011;36154;51.674;7.824;2022-07-18T00:13:58;0.43;;;0.43;;
48871;SDS011;36154;51.674;7.824;2022-07-18T00:16:24;0.43;;;0.43;;
48871;SDS011;36154;51.674;7.824;2022-07-18T00:18:49;0.40;;;0.30;;
48871;SDS011;36154;51.674;7.824;2022-07-18T00:21:15;0.40;;;0.40;;
48871;SDS011;36154;51.674;7.824;2022-07-18T00:23:40;0.75;;;0.45;;
48871;SDS011;36154;51.674;7.824;2022-07-18T00:26:06;0.30;;;0.30;;
48871;SDS011;36154;51.674;7.824;2022-07-18T00:28:31;0.50;;;0.35;;
48871;SDS011;36154;51.674;7.824;2022-07-18T00:30:56;1.10;;;0.60;;
48871;SDS011;36154;51.674;7.824;2022-07-18T00:33:22;0.50;;;0.30;;
48871;SDS011;36154;51.674;7.824;2022-07-18T00:35:47;1.52;;;0.50;;
48871;SDS011;36154;51.674;7.824;2022-07-18T00:38:13;0.43;;;0.43;;
48871;SDS011;36154;51.674;7.824;2022-07-18T00:40:38;1.88;;;0.50;;
48871;SDS011;36154;51.674;7.824;2022-07-18T00:43:03;0.40;;;0.40;;
48871;SDS011;36154;51.674;7.824;2022-07-18T00:45:29;0.30;;;0.30;;
48871;SDS011;36154;51.674;7.824;2022-07-18T00:47:55;0.30;;;0.30;;
48871;SDS011;36154;51.674;7.824;2022-07-18T00:50:20;0.47;;;0.47;;
48871;SDS011;36154;51.674;7.824;2022-07-18T00:52:47;0.30;;;0.30;;
48871;SDS011;36154;51.674;7.824;2022-07-18T00:55:13;0.82;;;0.40;;
48871;SDS011;36154;51.674;7.824;2022-07-18T00:57:39;0.38;;;0.30;;
48871;SDS011;36154;51.674;7.824;2022-07-18T01:00:07;1.05;;;0.40;;
48871;SDS011;36154;51.674;7.824;2022-07-18T01:02:54;0.50;;;0.30;;
48871;SDS011;36154;51.674;7.824;2022-07-18T01:05:19;2.22;;;0.47;;
48871;SDS011;36154;51.674;7.824;2022-07-18T01:07:44;0.50;;;0.50;;
48871;SDS011;36154;51.674;7.824;2022-07-18T01:10:10;0.75;;;0.35;;
48871;SDS011;36154;51.674;7.824;2022-07-18T01:12:35;0.60;;;0.30;;
48871;SDS011;36154;51.674;7.824;2022-07-18T01:15:01;0.30;;;0.30;;
48871;SDS011;36154;51.674;7.824;2022-07-18T01:17:26;0.50;;;0.40;;
48871;SDS011;36154;51.674;7.824;2022-07-18T01:19:52;1.10;;;0.30;;
48871;SDS011;36154;51.674;7.824;2022-07-18T01:22:18;1.67;;;0.30;;
48871;SDS011;36154;51.674;7.824;2022-07-18T01:24:44;0.30;;;0.20;;
48871;SDS011;36154;51.674;7.824;2022-07-18T01:27:13;1.13;;;0.40;;
48871;SDS011;36154;51.674;7.824;2022-07-18T01:29:39;0.73;;;0.30;;
48871;SDS011;36154;51.674;7.824;2022-07-18T01:32:05;0.40;;;0.30;;
48871;SDS011;36154;51.674;7.824;2022-07-18T01:34:31;1.95;;;0.30;;
48871;SDS011;36154;51.674;7.824;2022-07-18T01:36:57;0.98;;;0.82;;
48871;SDS011;36154;51.674;7.824;2022-07-18T01:39:23;0.30;;;0.30;;
48871;SDS011;36154;51.674;7.824;2022-07-18T01:42:02;0.40;;;0.30;;
48871;SDS011;36154;51.674;7.824;2022-07-18T01:44:31;2.60;;;0.40;;
48871;SDS011;36154;51.674;7.824;2022-07-18T01:46:56;0.75;;;0.30;;
48871;SDS011;36154;51.674;7.824;2022-07-18T01:49:22;1.15;;;0.35;;
48871;SDS011;36154;51.674;7.824;2022-07-18T01:51:48;0.63;;;0.40;;
48871;SDS011;36154;51.674;7.824;2022-07-18T01:54:15;0.50;;;0.35;;
48871;SDS011;36154;51.674;7.824;2022-07-18T01:56:41;0.45;;;0.30;;
48871;SDS011;36154;51.674;7.824;2022-07-18T01:59:06;0.60;;;0.32;;
48871;SDS011;36154;51.674;7.824;2022-07-18T02:01:31;0.22;;;0.22;;
48871;SDS011;36154;51.674;7.824;2022-07-18T02:03:57;0.30;;;0.20;;
48871;SDS011;36154;51.674;7.824;2022-07-18T02:06:22;0.20;;;0.20;;
48871;SDS011;36154;51.674;7.824;2022-07-18T02:08:47;0.50;;;0.20;;
48871;SDS011;36154;51.674;7.824;2022-07-18T02:11:12;0.32;;;0.28;;
48871;SDS011;36154;51.674;7.824;2022-07-18T02:13:38;1.13;;;0.30;;
48871;SDS011;36154;51.674;7.824;2022-07-18T02:16:03;1.38;;;0.28;;
48871;SDS011;36154;51.674;7.824;2022-07-18T02:18:29;2.92;;;0.30;;
48871;SDS011;36154;51.674;7.824;2022-07-18T02:20:58;0.75;;;0.40;;
48871;SDS011;36154;51.674;7.824;2022-07-18T02:23:24;0.30;;;0.20;;
48871;SDS011;36154;51.674;7.824;2022-07-18T02:25:49;0.50;;;0.30;;
48871;SDS011;36154;51.674;7.824;2022-07-18T02:28:14;0.40;;;0.30;;
48871;SDS011;36154;51.674;7.824;2022-07-18T02:30:39;0.20;;;0.20;;
48871;SDS011;36154;51.674;7.824;2022-07-18T02:33:05;1.75;;;0.30;;
48871;SDS011;36154;51.674;7.824;2022-07-18T02:35:30;0.90;;;0.32;;
48871;SDS011;36154;51.674;7.824;2022-07-18T02:37:56;0.75;;;0.40;;
48871;SDS011;36154;51.674;7.824;2022-07-18T02:40:21;0.85;;;0.47;;
48871;SDS011;36154;51.674;7.824;2022-07-18T02:42:46;0.20;;;0.20;;
48871;SDS011;36154;51.674;7.824;2022-07-18T02:45:12;0.60;;;0.30;;
48871;SDS011;36154;51.674;7.824;2022-07-18T02:47:37;0.57;;;0.30;;
48871;SDS011;36154;51.674;7.824;2022-07-18T02:50:03;0.20;;;0.20;;
48871;SDS011;36154;51.674;7.824;2022-07-18T02:52:28;0.30;;;0.30;;
48871;SDS011;36154;51.674;7.824;2022-07-18T02:54:53;0.30;;;0.30;;
48871;SDS011;36154;51.674;7.824;2022-07-18T02:57:21;0.22;;;0.22;;
48871;SDS011;36154;51.674;7.824;2022-07-18T02:59:46;0.35;;;0.30;;
48871;SDS011;36154;51.674;7.824;2022-07-18T03:02:12;0.30;;;0.30;;
48871;SDS011;36154;51.674;7.824;2022-07-18T03:04:37;0.35;;;0.25;;
48871;SDS011;36154;51.674;7.824;2022-07-18T03:07:02;0.30;;;0.30;;
48871;SDS011;36154;51.674;7.824;2022-07-18T03:09:28;0.87;;;0.50;;
48871;SDS011;36154;51.674;7.824;2022-07-18T03:11:54;0.63;;;0.40;;
48871;SDS011;36154;51.674;7.824;2022-07-18T03:14:20;0.60;;;0.47;;
48871;SDS011;36154;51.674;7.824;2022-07-18T03:16:46;0.90;;;0.60;;
48871;SDS011;36154;51.674;7.824;2022-07-18T03:19:11;0.35;;;0.30;;
48871;SDS011;36154;51.674;7.824;2022-07-18T03:21:36;0.45;;;0.35;;
48871;SDS011;36154;51.674;7.824;2022-07-18T03:24:02;0.68;;;0.50;;
48871;SDS011;36154;51.674;7.824;2022-07-18T03:26:27;1.45;;;0.40;;
48871;SDS011;36154;51.674;7.824;2022-07-18T03:28:52;0.50;;;0.40;;
48871;SDS011;36154;51.674;7.824;2022-07-18T03:31:18;0.40;;;0.40;;
48871;SDS011;36154;51.674;7.824;2022-07-18T03:33:44;0.73;;;0.40;;
48871;SDS011;36154;51.674;7.824;2022-07-18T03:36:09;0.52;;;0.40;;
48871;SDS011;36154;51.674;7.824;2022-07-18T03:38:35;0.43;;;0.30;;
48871;SDS011;36154;51.674;7.824;2022-07-18T03:41:08;0.40;;;0.40;;
48871;SDS011;36154;51.674;7.824;2022-07-18T03:43:34;1.73;;;0.40;;
48871;SDS011;36154;51.674;7.824;2022-07-18T03:45:59;1.10;;;0.53;;
48871;SDS011;36154;51.674;7.824;2022-07-18T03:48:24;0.50;;;0.50;;
48871;SDS011;36154;51.674;7.824;2022-07-18T03:50:50;0.90;;;0.50;;
48871;SDS011;36154;51.674;7.824;2022-07-18T03:53:15;1.07;;;0.53;;
48871;SDS011;36154;51.674;7.824;2022-07-18T03:55:40;1.83;;;0.82;;
48871;SDS011;36154;51.674;7.824;2022-07-18T03:58:05;2.30;;;0.60;;
48871;SDS011;36154;51.674;7.824;2022-07-18T04:00:31;1.50;;;0.60;;
48871;SDS011;36154;51.674;7.824;2022-07-18T04:02:56;0.50;;;0.43;;
48871;SDS011;36154;51.674;7.824;2022-07-18T04:05:21;0.40;;;0.40;;
48871;SDS011;36154;51.674;7.824;2022-07-18T04:07:46;2.05;;;0.60;;
48871;SDS011;36154;51.674;7.824;2022-07-18T04:10:12;0.77;;;0.60;;
48871;SDS011;36154;51.674;7.824;2022-07-18T04:12:44;0.38;;;0.30;;
48871;SDS011;36154;51.674;7.824;2022-07-18T04:15:14;3.72;;;0.60;;
48871;SDS011;36154;51.674;7.824;2022-07-18T04:17:40;1.58;;;0.60;;
48871;SDS011;36154;51.674;7.824;2022-07-18T04:20:05;3.25;;;0.88;;
48871;SDS011;36154;51.674;7.824;2022-07-18T04:22:31;5.03;;;0.93;;
48871;SDS011;36154;51.674;7.824;2022-07-18T04:24:56;2.05;;;0.80;;
48871;SDS011;36154;51.674;7.824;2022-07-18T04:27:22;29.17;;;4.53;;
48871;SDS011;36154;51.674;7.824;2022-07-18T04:29:47;26.33;;;5.20;;
48871;SDS011;36154;51.674;7.824;2022-07-18T04:32:12;20.73;;;3.70;;
48871;SDS011;36154;51.674;7.824;2022-07-18T04:34:37;20.48;;;3.75;;
48871;SDS011;36154;51.674;7.824;2022-07-18T04:37:03;20.17;;;3.80;;
48871;SDS011;36154;51.674;7.824;2022-07-18T04:39:28;16.27;;;3.23;;
48871;SDS011;36154;51.674;7.824;2022-07-18T04:41:53;14.90;;;2.92;;
48871;SDS011;36154;51.674;7.824;2022-07-18T04:44:20;6.55;;;2.58;;
48871;SDS011;36154;51.674;7.824;2022-07-18T04:46:45;12.45;;;2.58;;
48871;SDS011;36154;51.674;7.824;2022-07-18T04:49:10;11.87;;;2.57;;
48871;SDS011;36154;51.674;7.824;2022-07-18T04:51:35;12.70;;;2.70;;
48871;SDS011;36154;51.674;7.824;2022-07-18T04:54:01;14.63;;;2.77;;
48871;SDS011;36154;51.674;7.824;2022-07-18T04:56:26;11.50;;;2.10;;
48871;SDS011;36154;51.674;7.824;2022-07-18T04:58:51;6.10;;;1.98;;
48871;SDS011;36154;51.674;7.824;2022-07-18T05:01:16;6.60;;;2.10;;
48871;SDS011;36154;51.674;7.824;2022-07-18T05:03:42;6.00;;;1.60;;
48871;SDS011;36154;51.674;7.824;2022-07-18T05:06:07;5.22;;;1.65;;
48871;SDS011;36154;51.674;7.824;2022-07-18T05:08:32;5.80;;;1.60;;
48871;SDS011;36154;51.674;7.824;2022-07-18T05:10:57;6.68;;;1.50;;
48871;SDS011;36154;51.674;7.824;2022-07-18T05:13:23;5.60;;;1.40;;
48871;SDS011;36154;51.674;7.824;2022-07-18T05:15:48;9.05;;;1.60;;
48871;SDS011;36154;51.674;7.824;2022-07-18T05:18:14;4.68;;;1.40;;
48871;SDS011;36154;51.674;7.824;2022-07-18T05:20:39;7.50;;;1.58;;
48871;SDS011;36154;51.674;7.824;2022-07-18T05:23:05;3.40;;;1.40;;
48871;SDS011;36154;51.674;7.824;2022-07-18T05:25:30;5.18;;;1.40;;
48871;SDS011;36154;51.674;7.824;2022-07-18T05:27:55;7.90;;;1.53;;
48871;SDS011;36154;51.674;7.824;2022-07-18T05:30:21;4.85;;;1.17;;
48871;SDS011;36154;51.674;7.824;2022-07-18T05:32:48;3.08;;;1.30;;
48871;SDS011;36154;51.674;7.824;2022-07-18T05:35:14;5.38;;;1.45;;
48871;SDS011;36154;51.674;7.824;2022-07-18T05:37:40;4.80;;;1.13;;
48871;SDS011;36154;51.674;7.824;2022-07-18T05:40:07;1.35;;;0.80;;
48871;SDS011;36154;51.674;7.824;2022-07-18T05:42:34;4.85;;;1.02;;
48871;SDS011;36154;51.674;7.824;2022-07-18T05:44:59;4.97;;;1.15;;
48871;SDS011;36154;51.674;7.824;2022-07-18T05:47:24;1.87;;;1.30;;
48871;SDS011;36154;51.674;7.824;2022-07-18T05:49:50;1.70;;;0.80;;
48871;SDS011;36154;51.674;7.824;2022-07-18T05:52:15;4.20;;;1.48;;
48871;SDS011;36154;51.674;7.824;2022-07-18T05:54:40;4.05;;;1.00;;
48871;SDS011;36154;51.674;7.824;2022-07-18T05:57:05;4.87;;;0.93;;
48871;SDS011;36154;51.674;7.824;2022-07-18T05:59:31;5.68;;;1.20;;
48871;SDS011;36154;51.674;7.824;2022-07-18T06:01:56;1.80;;;1.30;;
48871;SDS011;36154;51.674;7.824;2022-07-18T06:04:21;3.45;;;1.13;;
48871;SDS011;36154;51.674;7.824;2022-07-18T06:06:47;4.88;;;1.60;;
48871;SDS011;36154;51.674;7.824;2022-07-18T06:09:15;1.80;;;1.70;;
48871;SDS011;36154;51.674;7.824;2022-07-18T06:11:41;6.05;;;1.30;;
48871;SDS011;36154;51.674;7.824;2022-07-18T06:14:06;6.13;;;1.17;;
48871;SDS011;36154;51.674;7.824;2022-07-18T06:16:31;3.63;;;1.20;;
48871;SDS011;36154;51.674;7.824;2022-07-18T06:18:57;2.08;;;1.00;;
48871;SDS011;36154;51.674;7.824;2022-07-18T06:21:23;2.38;;;1.25;;
48871;SDS011;36154;51.674;7.824;2022-07-18T06:23:48;2.85;;;1.33;;
48871;SDS011;36154;51.674;7.824;2022-07-18T06:26:14;3.40;;;1.00;;
48871;SDS011;36154;51.674;7.824;2022-07-18T06:28:39;3.67;;;1.17;;
48871;SDS011;36154;51.674;7.824;2022-07-18T06:31:04;2.13;;;1.13;;
48871;SDS011;36154;51.674;7.824;2022-07-18T06:33:30;2.55;;;0.95;;
48871;SDS011;36154;51.674;7.824;2022-07-18T06:35:56;2.97;;;0.97;;
48871;SDS011;36154;51.674;7.824;2022-07-18T06:38:21;1.85;;;1.00;;
48871;SDS011;36154;51.674;7.824;2022-07-18T06:40:46;2.08;;;0.80;;
48871;SDS011;36154;51.674;7.824;2022-07-18T06:43:12;3.20;;;0.90;;
48871;SDS011;36154;51.674;7.824;2022-07-18T06:45:43;3.83;;;0.93;;
48871;SDS011;36154;51.674;7.824;2022-07-18T06:48:09;7.45;;;0.93;;
48871;SDS011;36154;51.674;7.824;2022-07-18T06:50:34;3.85;;;1.00;;
48871;SDS011;36154;51.674;7.824;2022-07-18T06:53:00;1.58;;;0.63;;
48871;SDS011;36154;51.674;7.824;2022-07-18T06:55:25;2.50;;;1.07;;
48871;SDS011;36154;51.674;7.824;2022-07-18T06:57:50;4.80;;;1.10;;
48871;SDS011;36154;51.674;7.824;2022-07-18T07:00:15;1.10;;;0.60;;
48871;SDS011;36154;51.674;7.824;2022-07-18T07:02:42;4.65;;;0.60;;
48871;SDS011;36154;51.674;7.824;2022-07-18T07:05:12;2.70;;;0.80;;
48871;SDS011;36154;51.674;7.824;2022-07-18T07:07:37;5.20;;;0.70;;
48871;SDS011;36154;51.674;7.824;2022-07-18T07:10:03;2.10;;;0.60;;
48871;SDS011;36154;51.674;7.824;2022-07-18T07:12:29;1.00;;;0.52;;
48871;SDS011;36154;51.674;7.824;2022-07-18T07:14:54;2.25;;;0.68;;
48871;SDS011;36154;51.674;7.824;2022-07-18T07:17:19;1.95;;;0.57;;
48871;SDS011;36154;51.674;7.824;2022-07-18T07:19:45;4.07;;;0.60;;
48871;SDS011;36154;51.674;7.824;2022-07-18T07:22:10;1.70;;;0.60;;
48871;SDS011;36154;51.674;7.824;2022-07-18T07:24:35;1.85;;;0.55;;
48871;SDS011;36154;51.674;7.824;2022-07-18T07:27:03;0.90;;;0.50;;
48871;SDS011;36154;51.674;7.824;2022-07-18T07:29:28;1.95;;;0.57;;
48871;SDS011;36154;51.674;7.824;2022-07-18T07:31:54;2.45;;;0.50;;
48871;SDS011;36154;51.674;7.824;2022-07-18T07:34:19;2.17;;;0.60;;
48871;SDS011;36154;51.674;7.824;2022-07-18T07:36:44;0.82;;;0.63;;
48871;SDS011;36154;51.674;7.824;2022-07-18T07:39:10;0.43;;;0.30;;
48871;SDS011;36154;51.674;7.824;2022-07-18T07:41:35;0.38;;;0.38;;
48871;SDS011;36154;51.674;7.824;2022-07-18T07:44:00;0.57;;;0.40;;
48871;SDS011;36154;51.674;7.824;2022-07-18T07:46:26;1.05;;;0.50;;
48871;SDS011;36154;51.674;7.824;2022-07-18T07:48:52;2.47;;;0.60;;
48871;SDS011;36154;51.674;7.824;2022-07-18T07:51:17;0.83;;;0.30;;
48871;SDS011;36154;51.674;7.824;2022-07-18T07:53:42;2.20;;;0.53;;
48871;SDS011;36154;51.674;7.824;2022-07-18T07:56:07;1.00;;;0.63;;
48871;SDS011;36154;51.674;7.824;2022-07-18T07:58:32;3.13;;;0.40;;
48871;SDS011;36154;51.674;7.824;2022-07-18T08:00:58;1.85;;;0.50;;
48871;SDS011;36154;51.674;7.824;2022-07-18T08:03:23;1.17;;;0.40;;
48871;SDS011;36154;51.674;7.824;2022-07-18T08:05:49;1.30;;;0.50;;
48871;SDS011;36154;51.674;7.824;2022-07-18T08:08:15;2.05;;;0.40;;
48871;SDS011;36154;51.674;7.824;2022-07-18T08:10:42;1.55;;;0.47;;
48871;SDS011;36154;51.674;7.824;2022-07-18T08:13:07;1.67;;;0.38;;
48871;SDS011;36154;51.674;7.824;2022-07-18T08:15:33;2.92;;;0.40;;
48871;SDS011;36154;51.674;7.824;2022-07-18T08:17:58;1.58;;;0.35;;
48871;SDS011;36154;51.674;7.824;2022-07-18T08:20:24;0.50;;;0.30;;
48871;SDS011;36154;51.674;7.824;2022-07-18T08:22:53;0.43;;;0.30;;
48871;SDS011;36154;51.674;7.824;2022-07-18T08:25:28;0.82;;;0.40;;
48871;SDS011;36154;51.674;7.824;2022-07-18T08:27:55;1.48;;;0.30;;
48871;SDS011;36154;51.674;7.824;2022-07-18T08:30:22;0.57;;;0.30;;
48871;SDS011;36154;51.674;7.824;2022-07-18T08:32:47;0.77;;;0.40;;
48871;SDS011;36154;51.674;7.824;2022-07-18T08:35:12;0.82;;;0.35;;
48871;SDS011;36154;51.674;7.824;2022-07-18T08:37:38;0.38;;;0.20;;
48871;SDS011;36154;51.674;7.824;2022-07-18T08:40:03;0.95;;;0.30;;
48871;SDS011;36154;51.674;7.824;2022-07-18T08:42:29;0.57;;;0.20;;
48871;SDS011;36154;51.674;7.824;2022-07-18T08:44:57;1.13;;;0.30;;
48871;SDS011;36154;51.674;7.824;2022-07-18T08:47:23;0.40;;;0.30;;
48871;SDS011;36154;51.674;7.824;2022-07-18T08:49:52;0.20;;;0.20;;
48871;SDS011;36154;51.674;7.824;2022-07-18T08:52:18;0.55;;;0.30;;
48871;SDS011;36154;51.674;7.824;2022-07-18T08:54:44;0.25;;;0.20;;
48871;SDS011;36154;51.674;7.824;2022-07-18T08:57:09;0.30;;;0.30;;
48871;SDS011;36154;51.674;7.824;2022-07-18T08:59:35;0.30;;;0.30;;
48871;SDS011;36154;51.674;7.824;2022-07-18T09:02:00;0.28;;;0.20;;
48871;SDS011;36154;51.674;7.824;2022-07-18T09:04:35;0.30;;;0.20;;
48871;SDS011;36154;51.674;7.824;2022-07-18T09:07:02;0.60;;;0.28;;
48871;SDS011;36154;51.674;7.824;2022-07-18T09:09:29;0.20;;;0.20;;
48871;SDS011;36154;51.674;7.824;2022-07-18T09:11:56;0.25;;;0.20;;
48871;SDS011;36154;51.674;7.824;2022-07-18T09:14:33;0.20;;;0.20;;
48871;SDS011;36154;51.674;7.824;2022-07-18T09:19:41;0.55;;;0.20;;
48871;SDS011;36154;51.674;7.824;2022-07-18T09:22:21;0.20;;;0.20;;
48871;SDS011;36154;51.674;7.824;2022-07-18T09:28:10;0.10;;;0.10;;
48871;SDS011;36154;51.674;7.824;2022-07-18T09:30:33;1.27;;;0.13;;
48871;SDS011;36154;51.674;7.824;2022-07-18T09:35:36;1.05;;;0.30;;
48871;SDS011;36154;51.674;7.824;2022-07-18T09:38:15;0.30;;;0.20;;
48871;SDS011;36154;51.674;7.824;2022-07-18T09:40:49;1.55;;;0.20;;
48871;SDS011;36154;51.674;7.824;2022-07-18T09:43:18;0.30;;;0.10;;
48871;SDS011;36154;51.674;7.824;2022-07-18T09:45:46;0.60;;;0.17;;
48871;SDS011;36154;51.674;7.824;2022-07-18T09:48:15;0.20;;;0.20;;
48871;SDS011;36154;51.674;7.824;2022-07-18T09:53:35;0.20;;;0.20;;
48871;SDS011;36154;51.674;7.824;2022-07-18T09:56:04;1.92;;;0.20;;
48871;SDS011;36154;51.674;7.824;2022-07-18T09:58:38;0.28;;;0.20;;
48871;SDS011;36154;51.674;7.824;2022-07-18T10:01:05;0.55;;;0.20;;
48871;SDS011;36154;51.674;7.824;2022-07-18T10:03:32;0.40;;;0.10;;
48871;SDS011;36154;51.674;7.824;2022-07-18T10:05:58;1.65;;;0.20;;
48871;SDS011;36154;51.674;7.824;2022-07-18T10:08:26;0.40;;;0.25;;
48871;SDS011;36154;51.674;7.824;2022-07-18T10:10:53;0.20;;;0.20;;
48871;SDS011;36154;51.674;7.824;2022-07-18T10:13:21;1.95;;;0.20;;
48871;SDS011;36154;51.674;7.824;2022-07-18T10:15:48;0.30;;;0.10;;
48871;SDS011;36154;51.674;7.824;2022-07-18T10:18:19;0.20;;;0.10;;
48871;SDS011;36154;51.674;7.824;2022-07-18T10:20:47;0.10;;;0.10;;
48871;SDS011;36154;51.674;7.824;2022-07-18T10:23:26;2.15;;;0.20;;
48871;SDS011;36154;51.674;7.824;2022-07-18T10:31:21;0.25;;;0.10;;
48871;SDS011;36154;51.674;7.824;2022-07-18T10:33:49;0.05;;;0.05;;
48871;SDS011;36154;51.674;7.824;2022-07-18T10:36:18;0.45;;;0.20;;
48871;SDS011;36154;51.674;7.824;2022-07-18T10:57:36;0.00;;;0.00;;
48871;SDS011;36154;51.674;7.824;2022-07-18T11:00:07;0.00;;;0.00;;
48871;SDS011;36154;51.674;7.824;2022-07-18T11:02:39;0.13;;;0.05;;
48871;SDS011;36154;51.674;7.824;2022-07-18T11:15:53;1.23;;;0.00;;
48871;SDS011;36154;51.674;7.824;2022-07-18T11:18:25;0.00;;;0.00;;
48871;SDS011;36154;51.674;7.824;2022-07-18T11:20:51;0.00;;;0.00;;
48871;SDS011;36154;51.674;7.824;2022-07-18T11:23:20;0.00;;;0.00;;
48871;SDS011;36154;51.674;7.824;2022-07-18T11:25:50;0.00;;;0.00;;
48871;SDS011;36154;51.674;7.824;2022-07-18T11:28:21;0.00;;;0.00;;
48871;SDS011;36154;51.674;7.824;2022-07-18T11:31:04;0.20;;;0.00;;
48871;SDS011;36154;51.674;7.824;2022-07-18T11:33:33;0.10;;;0.10;;
48871;SDS011;36154;51.674;7.824;2022-07-18T11:36:10;0.30;;;0.10;;
48871;SDS011;36154;51.674;7.824;2022-07-18T11:38:46;0.40;;;0.10;;
48871;SDS011;36154;51.674;7.824;2022-07-18T11:41:21;3.30;;;0.10;;
48871;SDS011;36154;51.674;7.824;2022-07-18T11:43:48;0.00;;;0.00;;
48871;SDS011;36154;51.674;7.824;2022-07-18T11:46:15;0.10;;;0.10;;
48871;SDS011;36154;51.674;7.824;2022-07-18T11:48:43;0.30;;;0.10;;
48871;SDS011;36154;51.674;7.824;2022-07-18T11:51:14;0.30;;;0.10;;
48871;SDS011;36154;51.674;7.824;2022-07-18T11:53:42;0.20;;;0.10;;
48871;SDS011;36154;51.674;7.824;2022-07-18T11:56:12;0.47;;;0.10;;
48871;SDS011;36154;51.674;7.824;2022-07-18T11:58:39;0.00;;;0.00;;
48871;SDS011;36154;51.674;7.824;2022-07-18T12:01:06;0.10;;;0.10;;
48871;SDS011;36154;51.674;7.824;2022-07-18T12:03:42;0.10;;;0.10;;
48871;SDS011;36154;51.674;7.824;2022-07-18T12:06:13;0.10;;;0.10;;
48871;SDS011;36154;51.674;7.824;2022-07-18T12:08:44;0.10;;;0.10;;
48871;SDS011;36154;51.674;7.824;2022-07-18T12:22:08;0.03;;;0.03;;
48871;SDS011;36154;51.674;7.824;2022-07-18T12:29:52;0.20;;;0.13;;
48871;SDS011;36154;51.674;7.824;2022-07-18T12:32:18;0.20;;;0.10;;
48871;SDS011;36154;51.674;7.824;2022-07-18T12:35:03;0.10;;;0.10;;
48871;SDS011;36154;51.674;7.824;2022-07-18T12:37:36;1.70;;;0.22;;
48871;SDS011;36154;51.674;7.824;2022-07-18T12:40:03;0.17;;;0.10;;
48871;SDS011;36154;51.674;7.824;2022-07-18T12:42:40;0.30;;;0.22;;
48871;SDS011;36154;51.674;7.824;2022-07-18T12:45:08;0.85;;;0.00;;
48871;SDS011;36154;51.674;7.824;2022-07-18T12:47:34;0.10;;;0.10;;
48871;SDS011;36154;51.674;7.824;2022-07-18T12:49:59;0.22;;;0.10;;
48871;SDS011;36154;51.674;7.824;2022-07-18T12:52:25;0.30;;;0.10;;
48871;SDS011;36154;51.674;7.824;2022-07-18T12:54:51;0.30;;;0.10;;
48871;SDS011;36154;51.674;7.824;2022-07-18T12:57:17;0.80;;;0.10;;
48871;SDS011;36154;51.674;7.824;2022-07-18T12:59:43;0.10;;;0.10;;
48871;SDS011;36154;51.674;7.824;2022-07-18T13:02:08;0.08;;;0.00;;
48871;SDS011;36154;51.674;7.824;2022-07-18T13:04:34;0.60;;;0.17;;
48871;SDS011;36154;51.674;7.824;2022-07-18T13:07:00;0.40;;;0.10;;
48871;SDS011;36154;51.674;7.824;2022-07-18T13:09:25;0.20;;;0.00;;
48871;SDS011;36154;51.674;7.824;2022-07-18T13:11:50;0.00;;;0.00;;
48871;SDS011;36154;51.674;7.824;2022-07-18T13:14:16;0.30;;;0.30;;
48871;SDS011;36154;51.674;7.824;2022-07-18T13:16:42;0.00;;;0.00;;
48871;SDS011;36154;51.674;7.824;2022-07-18T13:19:12;0.00;;;0.00;;
48871;SDS011;36154;51.674;7.824;2022-07-18T13:21:38;0.10;;;0.10;;
48871;SDS011;36154;51.674;7.824;2022-07-18T13:24:03;0.17;;;0.17;;
48871;SDS011;36154;51.674;7.824;2022-07-18T13:26:29;0.05;;;0.00;;
48871;SDS011;36154;51.674;7.824;2022-07-18T13:28:54;0.10;;;0.10;;
48871;SDS011;36154;51.674;7.824;2022-07-18T13:31:19;0.17;;;0.10;;
48871;SDS011;36154;51.674;7.824;2022-07-18T13:33:45;0.10;;;0.10;;
48871;SDS011;36154;51.674;7.824;2022-07-18T13:36:12;1.45;;;0.00;;
48871;SDS011;36154;51.674;7.824;2022-07-18T13:38:37;0.20;;;0.10;;
48871;SDS011;36154;51.674;7.824;2022-07-18T13:41:03;1.05;;;0.10;;
48871;SDS011;36154;51.674;7.824;2022-07-18T13:43:28;0.05;;;0.00;;
48871;SDS011;36154;51.674;7.824;2022-07-18T13:45:53;0.73;;;0.10;;
48871;SDS011;36154;51.674;7.824;2022-07-18T13:48:19;0.10;;;0.10;;
48871;SDS011;36154;51.674;7.824;2022-07-18T13:50:44;0.20;;;0.00;;
48871;SDS011;36154;51.674;7.824;2022-07-18T13:53:09;0.28;;;0.10;;
48871;SDS011;36154;51.674;7.824;2022-07-18T13:55:34;0.10;;;0.10;;
48871;SDS011;36154;51.674;7.824;2022-07-18T13:58:00;0.10;;;0.10;;
48871;SDS011;36154;51.674;7.824;2022-07-18T14:00:25;0.10;;;0.10;;
48871;SDS011;36154;51.674;7.824;2022-07-18T14:02:50;0.10;;;0.10;;
48871;SDS011;36154;51.674;7.824;2022-07-18T14:05:16;0.10;;;0.10;;
48871;SDS011;36154;51.674;7.824;2022-07-18T14:07:41;0.10;;;0.10;;
48871;SDS011;36154;51.674;7.824;2022-07-18T14:10:08;0.10;;;0.10;;
48871;SDS011;36154;51.674;7.824;2022-07-18T14:12:33;0.10;;;0.10;;
48871;SDS011;36154;51.674;7.824;2022-07-18T14:14:58;0.10;;;0.10;;
48871;SDS011;36154;51.674;7.824;2022-07-18T14:17:24;0.20;;;0.07;;
48871;SDS011;36154;51.674;7.824;2022-07-18T14:19:49;0.10;;;0.10;;
48871;SDS011;36154;51.674;7.824;2022-07-18T14:22:14;0.10;;;0.10;;
48871;SDS011;36154;51.674;7.824;2022-07-18T14:24:39;0.03;;;0.03;;
48871;SDS011;36154;51.674;7.824;2022-07-18T14:27:05;0.10;;;0.10;;
48871;SDS011;36154;51.674;7.824;2022-07-18T14:29:30;0.10;;;0.10;;
48871;SDS011;36154;51.674;7.824;2022-07-18T14:31:55;0.10;;;0.10;;
48871;SDS011;36154;51.674;7.824;2022-07-18T14:34:20;0.20;;;0.20;;
48871;SDS011;36154;51.674;7.824;2022-07-18T14:36:46;0.27;;;0.07;;
48871;SDS011;36154;51.674;7.824;2022-07-18T14:39:11;0.10;;;0.10;;
48871;SDS011;36154;51.674;7.824;2022-07-18T14:41:36;1.45;;;0.00;;
48871;SDS011;36154;51.674;7.824;2022-07-18T14:44:01;1.23;;;0.07;;
48871;SDS011;36154;51.674;7.824;2022-07-18T14:46:27;0.13;;;0.13;;
48871;SDS011;36154;51.674;7.824;2022-07-18T14:48:53;0.22;;;0.10;;
48871;SDS011;36154;51.674;7.824;2022-07-18T14:51:18;0.03;;;0.00;;
48871;SDS011;36154;51.674;7.824;2022-07-18T14:53:44;0.13;;;0.10;;
48871;SDS011;36154;51.674;7.824;2022-07-18T14:56:09;0.00;;;0.00;;
48871;SDS011;36154;51.674;7.824;2022-07-18T14:58:34;0.00;;;0.00;;
48871;SDS011;36154;51.674;7.824;2022-07-18T15:01:00;0.00;;;0.00;;
48871;SDS011;36154;51.674;7.824;2022-07-18T15:03:25;0.35;;;0.10;;
48871;SDS011;36154;51.674;7.824;2022-07-18T15:05:50;0.00;;;0.00;;
48871;SDS011;36154;51.674;7.824;2022-07-18T15:08:16;0.00;;;0.00;;
48871;SDS011;36154;51.674;7.824;2022-07-18T15:10:41;0.00;;;0.00;;
48871;SDS011;36154;51.674;7.824;2022-07-18T15:13:06;0.38;;;0.10;;
48871;SDS011;36154;51.674;7.824;2022-07-18T15:15:32;0.07;;;0.00;;
48871;SDS011;36154;51.674;7.824;2022-07-18T15:17:57;0.00;;;0.00;;
48871;SDS011;36154;51.674;7.824;2022-07-18T15:20:22;0.50;;;0.00;;
48871;SDS011;36154;51.674;7.824;2022-07-18T15:22:49;0.10;;;0.10;;
48871;SDS011;36154;51.674;7.824;2022-07-18T15:25:14;2.10;;;0.00;;
48871;SDS011;36154;51.674;7.824;2022-07-18T15:27:39;7.43;;;0.00;;
48871;SDS011;36154;51.674;7.824;2022-07-18T15:30:05;0.68;;;0.10;;
48871;SDS011;36154;51.674;7.824;2022-07-18T15:32:31;2.88;;;0.20;;
48871;SDS011;36154;51.674;7.824;2022-07-18T15:34:56;2.17;;;0.10;;
48871;SDS011;36154;51.674;7.824;2022-07-18T15:37:22;0.40;;;0.10;;
48871;SDS011;36154;51.674;7.824;2022-07-18T15:39:47;0.53;;;0.10;;
48871;SDS011;36154;51.674;7.824;2022-07-18T15:42:12;0.57;;;0.20;;
48871;SDS011;36154;51.674;7.824;2022-07-18T15:44:37;3.47;;;0.10;;
48871;SDS011;36154;51.674;7.824;2022-07-18T15:47:06;0.88;;;0.10;;